sensor_id;sensor_type;location;lat;lon;timestamp;temperature;humidity
24730;DHT22;12832;52.392;13.066;2023-03-01T00:02:00;24.80;24.50
24730;DHT22;12832;52.392;13.066;2023-03-01T00:04:27;24.80;24.50
24730;DHT22;12832;52.392;13.066;2023-03-01T00:06:54;24.80;24.50
24730;DHT22;12832;52.392;13.066;2023-03-01T00:09:20;24.80;24.50
24730;DHT22;12832;52.392;13.066;2023-03-01T00:11:46;24.80;24.50
24730;DHT22;12832;52.392;13.066;2023-03-01T00:14:12;24.80;24.50
24730;DHT22;12832;52.392;13.066;2023-03-01T00:16:40;24.80;24.60
24730;DHT22;12832;52.392;13.066;2023-03-01T00:19:11;24.80;24.50
24730;DHT22;12832;52.392;13.066;2023-03-01T00:21:38;24.80;24.50
24730;DHT22;12832;52.392;13.066;2023-03-01T00:24:04;24.80;24.50
24730;DHT22;12832;52.392;13.066;2023-03-01T00:26:30;24.80;24.60
24730;DHT22;12832;52.392;13.066;2023-03-01T00:28:58;24.80;24.50
24730;DHT22;12832;52.392;13.066;2023-03-01T00:31:27;24.80;24.50
24730;DHT22;12832;52.392;13.066;2023-03-01T00:33:55;24.80;24.60
24730;DHT22;12832;52.392;13.066;2023-03-01T00:36:27;24.80;24.50
24730;DHT22;12832;52.392;13.066;2023-03-01T00:38:53;24.80;24.60
24730;DHT22;12832;52.392;13.066;2023-03-01T00:41:20;24.80;24.60
24730;DHT22;12832;52.392;13.066;2023-03-01T00:43:49;24.80;24.60
24730;DHT22;12832;52.392;13.066;2023-03-01T00:46:18;24.80;24.60
24730;DHT22;12832;52.392;13.066;2023-03-01T00:48:45;24.80;24.60
24730;DHT22;12832;52.392;13.066;2023-03-01T00:51:20;24.80;24.60
24730;DHT22;12832;52.392;13.066;2023-03-01T00:53:50;24.80;24.60
24730;DHT22;12832;52.392;13.066;2023-03-01T00:56:17;24.80;24.60
24730;DHT22;12832;52.392;13.066;2023-03-01T00:58:43;24.80;24.60
24730;DHT22;12832;52.392;13.066;2023-03-01T01:01:14;24.80;24.60
24730;DHT22;12832;52.392;13.066;2023-03-01T01:03:46;24.80;24.60
24730;DHT22;12832;52.392;13.066;2023-03-01T01:06:21;24.80;24.60
24730;DHT22;12832;52.392;13.066;2023-03-01T01:08:48;24.80;24.60
24730;DHT22;12832;52.392;13.066;2023-03-01T01:11:16;24.90;24.60
24730;DHT22;12832;52.392;13.066;2023-03-01T01:13:44;24.80;24.60
24730;DHT22;12832;52.392;13.066;2023-03-01T01:16:12;24.80;24.60
24730;DHT22;12832;52.392;13.066;2023-03-01T01:18:39;24.80;24.60
24730;DHT22;12832;52.392;13.066;2023-03-01T01:21:10;24.90;24.70
24730;DHT22;12832;52.392;13.066;2023-03-01T01:23:38;24.80;24.60
24730;DHT22;12832;52.392;13.066;2023-03-01T01:26:24;24.90;24.70
24730;DHT22;12832;52.392;13.066;2023-03-01T01:28:51;24.90;24.70
24730;DHT22;12832;52.392;13.066;2023-03-01T01:31:19;24.90;24.70
24730;DHT22;12832;52.392;13.066;2023-03-01T01:33:45;24.90;24.70
24730;DHT22;12832;52.392;13.066;2023-03-01T01:36:11;24.90;24.70
24730;DHT22;12832;52.392;13.066;2023-03-01T01:38:38;24.90;24.70
24730;DHT22;12832;52.392;13.066;2023-03-01T01:41:05;24.90;24.70
24730;DHT22;12832;52.392;13.066;2023-03-01T01:43:38;24.90;24.70
24730;DHT22;12832;52.392;13.066;2023-03-01T01:46:27;24.90;24.70
24730;DHT22;12832;52.392;13.066;2023-03-01T01:49:01;24.90;24.70
24730;DHT22;12832;52.392;13.066;2023-03-01T01:51:40;24.90;24.70
24730;DHT22;12832;52.392;13.066;2023-03-01T01:54:16;24.90;24.70
24730;DHT22;12832;52.392;13.066;2023-03-01T01:56:50;24.90;24.70
24730;DHT22;12832;52.392;13.066;2023-03-01T01:59:18;24.80;24.70
24730;DHT22;12832;52.392;13.066;2023-03-01T02:01:45;24.90;24.70
24730;DHT22;12832;52.392;13.066;2023-03-01T02:04:11;24.90;25.30
24730;DHT22;12832;52.392;13.066;2023-03-01T02:06:41;24.90;24.70
24730;DHT22;12832;52.392;13.066;2023-03-01T02:09:13;24.90;24.70
24730;DHT22;12832;52.392;13.066;2023-03-01T02:11:40;24.90;24.80
24730;DHT22;12832;52.392;13.066;2023-03-01T02:14:06;24.90;24.70
24730;DHT22;12832;52.392;13.066;2023-03-01T02:16:32;24.90;24.70
24730;DHT22;12832;52.392;13.066;2023-03-01T02:18:59;24.90;24.80
24730;DHT22;12832;52.392;13.066;2023-03-01T02:21:57;24.90;24.80
24730;DHT22;12832;52.392;13.066;2023-03-01T02:24:32;24.90;24.80
24730;DHT22;12832;52.392;13.066;2023-03-01T02:27:00;24.90;24.80
24730;DHT22;12832;52.392;13.066;2023-03-01T02:29:27;24.90;24.80
24730;DHT22;12832;52.392;13.066;2023-03-01T02:31:56;24.90;24.80
24730;DHT22;12832;52.392;13.066;2023-03-01T02:34:24;24.90;24.80
24730;DHT22;12832;52.392;13.066;2023-03-01T02:37:10;24.90;24.80
24730;DHT22;12832;52.392;13.066;2023-03-01T02:39:47;24.90;24.80
24730;DHT22;12832;52.392;13.066;2023-03-01T02:42:26;24.90;24.80
24730;DHT22;12832;52.392;13.066;2023-03-01T02:44:52;24.90;24.80
24730;DHT22;12832;52.392;13.066;2023-03-01T02:47:19;24.90;24.80
24730;DHT22;12832;52.392;13.066;2023-03-01T02:49:45;24.90;24.80
24730;DHT22;12832;52.392;13.066;2023-03-01T02:52:28;24.90;24.80
24730;DHT22;12832;52.392;13.066;2023-03-01T02:55:02;24.90;24.80
24730;DHT22;12832;52.392;13.066;2023-03-01T02:57:31;24.90;24.90
24730;DHT22;12832;52.392;13.066;2023-03-01T03:00:01;24.90;24.90
24730;DHT22;12832;52.392;13.066;2023-03-01T03:02:33;24.90;24.90
24730;DHT22;12832;52.392;13.066;2023-03-01T03:05:08;24.90;24.90
24730;DHT22;12832;52.392;13.066;2023-03-01T03:07:37;24.90;24.80
24730;DHT22;12832;52.392;13.066;2023-03-01T03:10:07;24.90;25.40
24730;DHT22;12832;52.392;13.066;2023-03-01T03:12:34;24.90;24.90
24730;DHT22;12832;52.392;13.066;2023-03-01T03:15:00;24.90;24.90
24730;DHT22;12832;52.392;13.066;2023-03-01T03:17:26;24.90;24.90
24730;DHT22;12832;52.392;13.066;2023-03-01T03:19:52;24.90;24.90
24730;DHT22;12832;52.392;13.066;2023-03-01T03:22:18;24.90;24.90
24730;DHT22;12832;52.392;13.066;2023-03-01T03:24:44;24.90;24.90
24730;DHT22;12832;52.392;13.066;2023-03-01T03:27:10;24.90;24.90
24730;DHT22;12832;52.392;13.066;2023-03-01T03:29:38;24.90;24.90
24730;DHT22;12832;52.392;13.066;2023-03-01T03:32:04;24.90;24.90
24730;DHT22;12832;52.392;13.066;2023-03-01T03:34:30;24.90;24.90
24730;DHT22;12832;52.392;13.066;2023-03-01T03:36:57;24.90;24.90
24730;DHT22;12832;52.392;13.066;2023-03-01T03:39:26;24.90;24.90
24730;DHT22;12832;52.392;13.066;2023-03-01T03:41:53;24.90;24.90
24730;DHT22;12832;52.392;13.066;2023-03-01T03:44:20;24.90;24.90
24730;DHT22;12832;52.392;13.066;2023-03-01T03:46:46;24.90;24.90
24730;DHT22;12832;52.392;13.066;2023-03-01T03:49:12;24.90;24.90
24730;DHT22;12832;52.392;13.066;2023-03-01T03:51:38;24.90;24.90
24730;DHT22;12832;52.392;13.066;2023-03-01T03:54:04;24.90;24.90
24730;DHT22;12832;52.392;13.066;2023-03-01T03:56:30;24.90;24.90
24730;DHT22;12832;52.392;13.066;2023-03-01T03:58:57;24.90;24.90
24730;DHT22;12832;52.392;13.066;2023-03-01T04:01:23;24.90;24.90
24730;DHT22;12832;52.392;13.066;2023-03-01T04:03:49;24.90;24.90
24730;DHT22;12832;52.392;13.066;2023-03-01T04:06:20;24.90;24.90
24730;DHT22;12832;52.392;13.066;2023-03-01T04:08:46;24.90;24.90
24730;DHT22;12832;52.392;13.066;2023-03-01T04:11:12;24.90;24.90
24730;DHT22;12832;52.392;13.066;2023-03-01T04:13:56;24.90;24.90
24730;DHT22;12832;52.392;13.066;2023-03-01T04:16:23;24.90;24.90
24730;DHT22;12832;52.392;13.066;2023-03-01T04:18:50;24.90;24.90
24730;DHT22;12832;52.392;13.066;2023-03-01T04:21:16;24.90;24.90
24730;DHT22;12832;52.392;13.066;2023-03-01T04:23:43;24.90;25.00
24730;DHT22;12832;52.392;13.066;2023-03-01T04:26:09;24.90;24.90
24730;DHT22;12832;52.392;13.066;2023-03-01T04:28:40;24.90;25.00
24730;DHT22;12832;52.392;13.066;2023-03-01T04:31:13;24.90;24.90
24730;DHT22;12832;52.392;13.066;2023-03-01T04:36:08;24.90;24.90
24730;DHT22;12832;52.392;13.066;2023-03-01T04:38:36;24.90;25.00
24730;DHT22;12832;52.392;13.066;2023-03-01T04:41:05;24.90;25.00
24730;DHT22;12832;52.392;13.066;2023-03-01T04:43:31;24.90;25.00
24730;DHT22;12832;52.392;13.066;2023-03-01T04:46:05;24.90;25.00
24730;DHT22;12832;52.392;13.066;2023-03-01T04:48:32;24.90;25.10
24730;DHT22;12832;52.392;13.066;2023-03-01T04:50:59;24.90;25.10
24730;DHT22;12832;52.392;13.066;2023-03-01T04:53:28;24.90;25.10
24730;DHT22;12832;52.392;13.066;2023-03-01T04:55:55;24.90;25.20
24730;DHT22;12832;52.392;13.066;2023-03-01T04:58:26;24.90;25.50
24730;DHT22;12832;52.392;13.066;2023-03-01T05:00:53;24.90;25.50
24730;DHT22;12832;52.392;13.066;2023-03-01T05:03:20;24.90;25.60
24730;DHT22;12832;52.392;13.066;2023-03-01T05:05:48;24.90;25.60
24730;DHT22;12832;52.392;13.066;2023-03-01T05:08:15;24.90;25.70
24730;DHT22;12832;52.392;13.066;2023-03-01T05:10:45;24.90;25.70
24730;DHT22;12832;52.392;13.066;2023-03-01T05:13:13;24.90;25.70
24730;DHT22;12832;52.392;13.066;2023-03-01T05:15:39;24.80;25.70
24730;DHT22;12832;52.392;13.066;2023-03-01T05:18:05;24.90;25.70
24730;DHT22;12832;52.392;13.066;2023-03-01T05:20:37;24.90;25.80
24730;DHT22;12832;52.392;13.066;2023-03-01T05:23:06;24.90;25.50
24730;DHT22;12832;52.392;13.066;2023-03-01T05:25:44;25.00;24.40
24730;DHT22;12832;52.392;13.066;2023-03-01T05:28:13;24.90;24.70
24730;DHT22;12832;52.392;13.066;2023-03-01T05:30:40;24.90;24.30
24730;DHT22;12832;52.392;13.066;2023-03-01T05:33:09;24.90;24.40
24730;DHT22;12832;52.392;13.066;2023-03-01T05:35:41;25.00;24.40
24730;DHT22;12832;52.392;13.066;2023-03-01T05:38:11;24.90;24.50
24730;DHT22;12832;52.392;13.066;2023-03-01T05:40:47;24.90;24.00
24730;DHT22;12832;52.392;13.066;2023-03-01T05:43:32;24.90;23.80
24730;DHT22;12832;52.392;13.066;2023-03-01T05:46:27;25.00;23.60
24730;DHT22;12832;52.392;13.066;2023-03-01T05:48:57;25.00;24.30
24730;DHT22;12832;52.392;13.066;2023-03-01T05:51:29;25.00;24.40
24730;DHT22;12832;52.392;13.066;2023-03-01T05:53:56;25.00;24.70
24730;DHT22;12832;52.392;13.066;2023-03-01T05:56:29;25.00;24.60
24730;DHT22;12832;52.392;13.066;2023-03-01T05:59:20;25.00;24.60
24730;DHT22;12832;52.392;13.066;2023-03-01T06:01:48;25.00;23.80
24730;DHT22;12832;52.392;13.066;2023-03-01T06:04:34;25.00;23.20
24730;DHT22;12832;52.392;13.066;2023-03-01T06:07:07;24.90;23.80
24730;DHT22;12832;52.392;13.066;2023-03-01T06:09:34;24.90;23.50
24730;DHT22;12832;52.392;13.066;2023-03-01T06:12:00;24.90;23.70
24730;DHT22;12832;52.392;13.066;2023-03-01T06:14:27;25.00;23.60
24730;DHT22;12832;52.392;13.066;2023-03-01T06:16:53;25.00;23.60
24730;DHT22;12832;52.392;13.066;2023-03-01T06:19:19;25.00;23.70
24730;DHT22;12832;52.392;13.066;2023-03-01T06:21:46;25.00;23.40
24730;DHT22;12832;52.392;13.066;2023-03-01T06:24:15;24.90;23.80
24730;DHT22;12832;52.392;13.066;2023-03-01T06:26:41;24.90;24.00
24730;DHT22;12832;52.392;13.066;2023-03-01T06:29:07;24.90;24.00
24730;DHT22;12832;52.392;13.066;2023-03-01T06:31:34;24.90;23.90
24730;DHT22;12832;52.392;13.066;2023-03-01T06:34:02;24.90;23.90
24730;DHT22;12832;52.392;13.066;2023-03-01T06:36:28;24.90;23.60
24730;DHT22;12832;52.392;13.066;2023-03-01T06:38:55;24.90;23.50
24730;DHT22;12832;52.392;13.066;2023-03-01T06:41:21;24.90;23.50
24730;DHT22;12832;52.392;13.066;2023-03-01T06:43:48;24.90;23.70
24730;DHT22;12832;52.392;13.066;2023-03-01T06:46:14;24.80;24.50
24730;DHT22;12832;52.392;13.066;2023-03-01T06:48:40;24.90;24.30
24730;DHT22;12832;52.392;13.066;2023-03-01T06:51:06;24.90;24.00
24730;DHT22;12832;52.392;13.066;2023-03-01T06:53:32;24.90;23.60
24730;DHT22;12832;52.392;13.066;2023-03-01T06:55:59;24.80;23.70
24730;DHT22;12832;52.392;13.066;2023-03-01T06:58:28;24.80;23.80
24730;DHT22;12832;52.392;13.066;2023-03-01T07:00:54;24.70;23.90
24730;DHT22;12832;52.392;13.066;2023-03-01T07:03:20;24.70;23.90
24730;DHT22;12832;52.392;13.066;2023-03-01T07:05:49;24.70;24.00
24730;DHT22;12832;52.392;13.066;2023-03-01T07:08:15;24.70;24.00
24730;DHT22;12832;52.392;13.066;2023-03-01T07:10:41;24.70;24.10
24730;DHT22;12832;52.392;13.066;2023-03-01T07:13:08;24.70;24.20
24730;DHT22;12832;52.392;13.066;2023-03-01T07:15:34;24.60;24.10
24730;DHT22;12832;52.392;13.066;2023-03-01T07:18:00;24.60;24.00
24730;DHT22;12832;52.392;13.066;2023-03-01T07:20:26;24.60;24.00
24730;DHT22;12832;52.392;13.066;2023-03-01T07:22:53;24.60;24.00
24730;DHT22;12832;52.392;13.066;2023-03-01T07:25:20;24.60;24.10
24730;DHT22;12832;52.392;13.066;2023-03-01T07:27:50;24.60;24.10
24730;DHT22;12832;52.392;13.066;2023-03-01T07:30:17;24.60;24.10
24730;DHT22;12832;52.392;13.066;2023-03-01T07:32:44;24.60;24.00
24730;DHT22;12832;52.392;13.066;2023-03-01T07:35:11;24.60;24.10
24730;DHT22;12832;52.392;13.066;2023-03-01T07:37:37;24.60;24.10
24730;DHT22;12832;52.392;13.066;2023-03-01T07:40:04;24.60;24.10
24730;DHT22;12832;52.392;13.066;2023-03-01T07:42:30;24.60;24.20
24730;DHT22;12832;52.392;13.066;2023-03-01T07:44:56;24.50;24.20
24730;DHT22;12832;52.392;13.066;2023-03-01T07:47:22;24.50;24.20
24730;DHT22;12832;52.392;13.066;2023-03-01T07:49:49;24.50;24.20
24730;DHT22;12832;52.392;13.066;2023-03-01T07:52:15;24.50;24.30
24730;DHT22;12832;52.392;13.066;2023-03-01T07:54:43;24.50;24.30
24730;DHT22;12832;52.392;13.066;2023-03-01T07:57:11;24.50;24.40
24730;DHT22;12832;52.392;13.066;2023-03-01T07:59:38;24.50;24.50
24730;DHT22;12832;52.392;13.066;2023-03-01T08:02:04;24.50;24.60
24730;DHT22;12832;52.392;13.066;2023-03-01T08:04:33;24.50;24.80
24730;DHT22;12832;52.392;13.066;2023-03-01T08:07:05;24.50;24.70
24730;DHT22;12832;52.392;13.066;2023-03-01T08:09:37;24.50;24.80
24730;DHT22;12832;52.392;13.066;2023-03-01T08:12:05;24.50;24.80
24730;DHT22;12832;52.392;13.066;2023-03-01T08:14:32;24.40;24.70
24730;DHT22;12832;52.392;13.066;2023-03-01T08:16:58;24.50;24.80
24730;DHT22;12832;52.392;13.066;2023-03-01T08:19:25;24.50;24.80
24730;DHT22;12832;52.392;13.066;2023-03-01T08:21:51;24.50;24.90
24730;DHT22;12832;52.392;13.066;2023-03-01T08:24:17;24.50;25.20
24730;DHT22;12832;52.392;13.066;2023-03-01T08:26:43;24.60;25.30
24730;DHT22;12832;52.392;13.066;2023-03-01T08:29:09;24.50;25.30
24730;DHT22;12832;52.392;13.066;2023-03-01T08:31:39;24.60;25.20
24730;DHT22;12832;52.392;13.066;2023-03-01T08:34:11;24.50;25.00
24730;DHT22;12832;52.392;13.066;2023-03-01T08:36:41;24.50;25.00
24730;DHT22;12832;52.392;13.066;2023-03-01T08:39:09;24.50;24.90
24730;DHT22;12832;52.392;13.066;2023-03-01T08:41:36;24.50;25.10
24730;DHT22;12832;52.392;13.066;2023-03-01T08:44:03;24.50;25.30
24730;DHT22;12832;52.392;13.066;2023-03-01T08:46:32;24.50;25.20
24730;DHT22;12832;52.392;13.066;2023-03-01T08:49:07;24.40;25.10
24730;DHT22;12832;52.392;13.066;2023-03-01T08:51:35;24.50;25.40
24730;DHT22;12832;52.392;13.066;2023-03-01T08:54:10;24.60;25.60
24730;DHT22;12832;52.392;13.066;2023-03-01T08:56:37;24.50;25.40
24730;DHT22;12832;52.392;13.066;2023-03-01T08:59:04;24.50;25.20
24730;DHT22;12832;52.392;13.066;2023-03-01T09:01:30;24.50;25.10
24730;DHT22;12832;52.392;13.066;2023-03-01T09:03:56;24.50;25.00
24730;DHT22;12832;52.392;13.066;2023-03-01T09:06:23;24.50;25.00
24730;DHT22;12832;52.392;13.066;2023-03-01T09:08:50;24.50;24.90
24730;DHT22;12832;52.392;13.066;2023-03-01T09:11:20;24.40;24.90
24730;DHT22;12832;52.392;13.066;2023-03-01T09:13:48;24.40;25.00
24730;DHT22;12832;52.392;13.066;2023-03-01T09:16:16;24.40;24.90
24730;DHT22;12832;52.392;13.066;2023-03-01T09:18:43;24.40;24.90
24730;DHT22;12832;52.392;13.066;2023-03-01T09:21:12;24.40;25.00
24730;DHT22;12832;52.392;13.066;2023-03-01T09:23:46;24.50;25.20
24730;DHT22;12832;52.392;13.066;2023-03-01T09:26:16;24.50;25.50
24730;DHT22;12832;52.392;13.066;2023-03-01T09:28:46;24.50;25.30
24730;DHT22;12832;52.392;13.066;2023-03-01T09:31:13;24.50;25.20
24730;DHT22;12832;52.392;13.066;2023-03-01T09:33:42;24.40;25.30
24730;DHT22;12832;52.392;13.066;2023-03-01T09:36:15;24.50;25.60
24730;DHT22;12832;52.392;13.066;2023-03-01T09:38:42;24.40;25.30
24730;DHT22;12832;52.392;13.066;2023-03-01T09:44:29;24.60;24.90
24730;DHT22;12832;52.392;13.066;2023-03-01T09:46:48;24.60;25.40
24730;DHT22;12832;52.392;13.066;2023-03-01T09:49:39;24.50;25.00
24730;DHT22;12832;52.392;13.066;2023-03-01T09:54:46;24.50;25.20
24730;DHT22;12832;52.392;13.066;2023-03-01T09:57:20;24.40;25.10
24730;DHT22;12832;52.392;13.066;2023-03-01T10:02:48;24.60;25.70
24730;DHT22;12832;52.392;13.066;2023-03-01T10:10:37;24.60;25.50
24730;DHT22;12832;52.392;13.066;2023-03-01T10:13:35;24.60;25.50
24730;DHT22;12832;52.392;13.066;2023-03-01T10:16:21;24.50;25.50
24730;DHT22;12832;52.392;13.066;2023-03-01T10:18:55;24.50;25.60
24730;DHT22;12832;52.392;13.066;2023-03-01T10:21:21;24.60;25.60
24730;DHT22;12832;52.392;13.066;2023-03-01T10:23:50;24.50;25.80
24730;DHT22;12832;52.392;13.066;2023-03-01T10:29:12;24.60;26.00
24730;DHT22;12832;52.392;13.066;2023-03-01T10:31:49;24.70;26.40
24730;DHT22;12832;52.392;13.066;2023-03-01T10:36:51;24.60;25.50
24730;DHT22;12832;52.392;13.066;2023-03-01T10:39:21;24.60;25.50
24730;DHT22;12832;52.392;13.066;2023-03-01T10:41:59;24.60;25.50
24730;DHT22;12832;52.392;13.066;2023-03-01T10:44:38;24.50;25.40
24730;DHT22;12832;52.392;13.066;2023-03-01T10:47:07;24.50;25.50
24730;DHT22;12832;52.392;13.066;2023-03-01T10:49:37;24.50;25.50
24730;DHT22;12832;52.392;13.066;2023-03-01T10:52:18;24.50;25.50
24730;DHT22;12832;52.392;13.066;2023-03-01T10:54:54;24.50;25.60
24730;DHT22;12832;52.392;13.066;2023-03-01T10:57:36;24.60;25.60
24730;DHT22;12832;52.392;13.066;2023-03-01T11:00:26;24.50;25.50
24730;DHT22;12832;52.392;13.066;2023-03-01T11:05:26;24.50;25.60
24730;DHT22;12832;52.392;13.066;2023-03-01T11:07:59;24.40;25.50
24730;DHT22;12832;52.392;13.066;2023-03-01T11:10:34;24.50;25.30
24730;DHT22;12832;52.392;13.066;2023-03-01T11:13:18;24.50;25.20
24730;DHT22;12832;52.392;13.066;2023-03-01T11:16:05;24.50;25.30
24730;DHT22;12832;52.392;13.066;2023-03-01T11:18:32;24.40;25.40
24730;DHT22;12832;52.392;13.066;2023-03-01T11:21:13;24.40;25.40
24730;DHT22;12832;52.392;13.066;2023-03-01T11:23:39;24.40;25.30
24730;DHT22;12832;52.392;13.066;2023-03-01T11:26:08;24.40;25.30
24730;DHT22;12832;52.392;13.066;2023-03-01T11:28:39;24.40;25.40
24730;DHT22;12832;52.392;13.066;2023-03-01T11:31:10;24.40;25.30
24730;DHT22;12832;52.392;13.066;2023-03-01T11:33:50;24.40;25.40
24730;DHT22;12832;52.392;13.066;2023-03-01T11:36:32;24.40;25.50
24730;DHT22;12832;52.392;13.066;2023-03-01T11:39:25;24.40;25.50
24730;DHT22;12832;52.392;13.066;2023-03-01T11:42:05;24.40;25.60
24730;DHT22;12832;52.392;13.066;2023-03-01T11:44:47;24.40;25.70
24730;DHT22;12832;52.392;13.066;2023-03-01T11:53:39;24.40;25.60
24730;DHT22;12832;52.392;13.066;2023-03-01T11:59:02;24.40;25.50
24730;DHT22;12832;52.392;13.066;2023-03-01T12:13:49;24.30;25.70
24730;DHT22;12832;52.392;13.066;2023-03-01T12:16:53;24.30;25.60
24730;DHT22;12832;52.392;13.066;2023-03-01T12:31:39;24.30;25.50
24730;DHT22;12832;52.392;13.066;2023-03-01T12:37:29;24.30;25.60
24730;DHT22;12832;52.392;13.066;2023-03-01T12:46:35;24.30;25.40
24730;DHT22;12832;52.392;13.066;2023-03-01T12:54:48;24.30;25.30
24730;DHT22;12832;52.392;13.066;2023-03-01T12:57:42;24.30;25.30
24730;DHT22;12832;52.392;13.066;2023-03-01T13:06:13;24.30;25.80
24730;DHT22;12832;52.392;13.066;2023-03-01T13:08:47;24.30;25.90
24730;DHT22;12832;52.392;13.066;2023-03-01T13:11:21;24.30;26.50
24730;DHT22;12832;52.392;13.066;2023-03-01T13:13:52;24.30;25.90
24730;DHT22;12832;52.392;13.066;2023-03-01T13:16:41;24.30;25.90
24730;DHT22;12832;52.392;13.066;2023-03-01T13:19:17;24.30;25.90
24730;DHT22;12832;52.392;13.066;2023-03-01T13:21:49;24.30;25.90
24730;DHT22;12832;52.392;13.066;2023-03-01T13:24:41;24.30;26.00
24730;DHT22;12832;52.392;13.066;2023-03-01T13:27:23;24.30;25.90
24730;DHT22;12832;52.392;13.066;2023-03-01T13:36:02;24.30;25.80
24730;DHT22;12832;52.392;13.066;2023-03-01T13:39:28;24.30;25.80
24730;DHT22;12832;52.392;13.066;2023-03-01T13:44:34;24.30;25.90
24730;DHT22;12832;52.392;13.066;2023-03-01T13:47:14;24.30;25.90
24730;DHT22;12832;52.392;13.066;2023-03-01T13:50:00;24.30;25.60
24730;DHT22;12832;52.392;13.066;2023-03-01T13:53:09;24.30;25.40
24730;DHT22;12832;52.392;13.066;2023-03-01T13:55:43;24.30;25.40
24730;DHT22;12832;52.392;13.066;2023-03-01T14:01:04;24.20;25.30
24730;DHT22;12832;52.392;13.066;2023-03-01T14:03:41;24.30;25.30
24730;DHT22;12832;52.392;13.066;2023-03-01T14:06:16;24.30;25.30
24730;DHT22;12832;52.392;13.066;2023-03-01T14:09:02;24.30;25.20
24730;DHT22;12832;52.392;13.066;2023-03-01T14:20:17;24.20;25.20
24730;DHT22;12832;52.392;13.066;2023-03-01T14:22:48;24.30;25.40
24730;DHT22;12832;52.392;13.066;2023-03-01T14:25:29;24.30;25.40
24730;DHT22;12832;52.392;13.066;2023-03-01T14:28:18;24.20;25.50
24730;DHT22;12832;52.392;13.066;2023-03-01T14:30:55;24.30;25.60
24730;DHT22;12832;52.392;13.066;2023-03-01T14:33:37;24.30;25.60
24730;DHT22;12832;52.392;13.066;2023-03-01T14:36:15;24.30;25.60
24730;DHT22;12832;52.392;13.066;2023-03-01T14:38:52;24.30;25.50
24730;DHT22;12832;52.392;13.066;2023-03-01T14:41:27;24.20;25.40
24730;DHT22;12832;52.392;13.066;2023-03-01T14:44:14;24.20;25.30
24730;DHT22;12832;52.392;13.066;2023-03-01T14:46:51;24.20;25.30
24730;DHT22;12832;52.392;13.066;2023-03-01T14:49:31;24.20;25.30
24730;DHT22;12832;52.392;13.066;2023-03-01T14:52:16;24.20;25.20
24730;DHT22;12832;52.392;13.066;2023-03-01T14:54:54;24.20;25.20
24730;DHT22;12832;52.392;13.066;2023-03-01T14:57:30;24.30;25.20
24730;DHT22;12832;52.392;13.066;2023-03-01T15:00:10;24.20;25.10
24730;DHT22;12832;52.392;13.066;2023-03-01T15:02:55;24.20;25.10
24730;DHT22;12832;52.392;13.066;2023-03-01T15:05:39;24.20;25.00
24730;DHT22;12832;52.392;13.066;2023-03-01T15:08:25;24.20;24.90
24730;DHT22;12832;52.392;13.066;2023-03-01T15:11:28;24.20;24.80
24730;DHT22;12832;52.392;13.066;2023-03-01T15:14:38;24.20;24.80
24730;DHT22;12832;52.392;13.066;2023-03-01T15:16:59;24.20;24.70
24730;DHT22;12832;52.392;13.066;2023-03-01T15:19:28;24.20;24.60
24730;DHT22;12832;52.392;13.066;2023-03-01T15:22:20;24.20;24.60
24730;DHT22;12832;52.392;13.066;2023-03-01T15:24:56;24.20;24.50
24730;DHT22;12832;52.392;13.066;2023-03-01T15:27:28;24.20;24.40
24730;DHT22;12832;52.392;13.066;2023-03-01T15:30:04;24.20;24.40
24730;DHT22;12832;52.392;13.066;2023-03-01T15:32:43;24.20;24.40
24730;DHT22;12832;52.392;13.066;2023-03-01T15:35:48;24.20;24.30
24730;DHT22;12832;52.392;13.066;2023-03-01T15:38:30;24.20;24.30
24730;DHT22;12832;52.392;13.066;2023-03-01T15:41:24;24.20;24.30
24730;DHT22;12832;52.392;13.066;2023-03-01T15:44:14;24.20;24.20
24730;DHT22;12832;52.392;13.066;2023-03-01T15:46:58;24.20;24.20
24730;DHT22;12832;52.392;13.066;2023-03-01T15:49:39;24.20;24.20
24730;DHT22;12832;52.392;13.066;2023-03-01T15:52:39;24.20;24.00
24730;DHT22;12832;52.392;13.066;2023-03-01T15:55:31;24.20;23.90
24730;DHT22;12832;52.392;13.066;2023-03-01T15:58:20;24.30;23.90
24730;DHT22;12832;52.392;13.066;2023-03-01T16:00:53;24.30;23.80
24730;DHT22;12832;52.392;13.066;2023-03-01T16:03:29;24.20;23.70
24730;DHT22;12832;52.392;13.066;2023-03-01T16:06:04;24.20;23.70
24730;DHT22;12832;52.392;13.066;2023-03-01T16:08:39;24.20;23.70
24730;DHT22;12832;52.392;13.066;2023-03-01T16:11:17;24.20;23.80
24730;DHT22;12832;52.392;13.066;2023-03-01T16:13:47;24.30;23.90
24730;DHT22;12832;52.392;13.066;2023-03-01T16:16:17;24.30;23.90
24730;DHT22;12832;52.392;13.066;2023-03-01T16:18:46;24.30;23.90
24730;DHT22;12832;52.392;13.066;2023-03-01T16:21:23;24.30;23.70
24730;DHT22;12832;52.392;13.066;2023-03-01T16:23:51;24.30;23.60
24730;DHT22;12832;52.392;13.066;2023-03-01T16:26:24;24.30;23.60
24730;DHT22;12832;52.392;13.066;2023-03-01T16:29:04;24.30;23.60
24730;DHT22;12832;52.392;13.066;2023-03-01T16:31:34;24.20;23.50
24730;DHT22;12832;52.392;13.066;2023-03-01T16:34:06;24.20;23.60
24730;DHT22;12832;52.392;13.066;2023-03-01T16:36:35;24.20;23.70
24730;DHT22;12832;52.392;13.066;2023-03-01T16:39:06;24.20;23.70
24730;DHT22;12832;52.392;13.066;2023-03-01T16:41:40;24.20;23.60
24730;DHT22;12832;52.392;13.066;2023-03-01T16:44:15;24.30;23.60
24730;DHT22;12832;52.392;13.066;2023-03-01T16:46:47;24.20;23.60
24730;DHT22;12832;52.392;13.066;2023-03-01T16:49:14;24.20;23.60
24730;DHT22;12832;52.392;13.066;2023-03-01T16:51:46;24.20;23.60
24730;DHT22;12832;52.392;13.066;2023-03-01T16:54:16;24.20;23.70
24730;DHT22;12832;52.392;13.066;2023-03-01T16:56:46;24.20;23.80
24730;DHT22;12832;52.392;13.066;2023-03-01T16:59:15;24.20;23.70
24730;DHT22;12832;52.392;13.066;2023-03-01T17:01:46;24.20;23.70
24730;DHT22;12832;52.392;13.066;2023-03-01T17:04:18;24.20;23.70
24730;DHT22;12832;52.392;13.066;2023-03-01T17:06:48;24.20;23.70
24730;DHT22;12832;52.392;13.066;2023-03-01T17:09:18;24.20;23.80
24730;DHT22;12832;52.392;13.066;2023-03-01T17:11:49;24.20;23.80
24730;DHT22;12832;52.392;13.066;2023-03-01T17:14:20;24.20;23.80
24730;DHT22;12832;52.392;13.066;2023-03-01T17:16:50;24.20;23.80
24730;DHT22;12832;52.392;13.066;2023-03-01T17:19:25;24.20;23.80
24730;DHT22;12832;52.392;13.066;2023-03-01T17:21:55;24.20;23.80
24730;DHT22;12832;52.392;13.066;2023-03-01T17:24:26;24.20;23.70
24730;DHT22;12832;52.392;13.066;2023-03-01T17:26:56;24.20;23.80